createdAt,value
2022-12-13T00:01:45.276Z,7.15
2022-12-13T00:04:28.308Z,7.43
2022-12-13T00:07:11.306Z,7.43
2022-12-13T00:09:54.197Z,6.80
2022-12-13T00:12:39.896Z,5.72
2022-12-13T00:15:22.798Z,5.68
2022-12-13T00:18:05.691Z,6.30
2022-12-13T00:20:48.549Z,9.35
2022-12-13T00:23:31.396Z,8.52
2022-12-13T00:26:16.339Z,11.00
2022-12-13T00:29:01.851Z,10.55
2022-12-13T00:31:59.392Z,9.02
2022-12-13T00:34:42.680Z,9.07
2022-12-13T00:37:25.516Z,7.63
2022-12-13T00:40:09.529Z,6.15
2022-12-13T00:42:52.554Z,11.57
2022-12-13T00:45:38.193Z,9.98
2022-12-13T00:48:21.039Z,9.35
2022-12-13T00:51:07.948Z,9.70
2022-12-13T00:53:51.350Z,7.60
2022-12-13T00:56:34.765Z,9.35
2022-12-13T00:59:17.728Z,10.23
2022-12-13T01:02:01.929Z,9.93
2022-12-13T01:04:44.991Z,11.32
2022-12-13T01:07:28.081Z,10.23
2022-12-13T01:10:13.014Z,8.47
2022-12-13T01:12:55.836Z,7.18
2022-12-13T01:15:42.227Z,11.18
2022-12-13T01:18:26.643Z,9.70
2022-12-13T01:21:12.538Z,7.53
2022-12-13T01:23:57.221Z,8.93
2022-12-13T01:26:40.052Z,7.70
2022-12-13T01:29:23.673Z,8.65
2022-12-13T01:32:08.886Z,8.32
2022-12-13T01:34:53.185Z,8.85
2022-12-13T01:37:37.404Z,9.45
2022-12-13T01:40:20.547Z,9.07
2022-12-13T01:43:14.500Z,9.73
2022-12-13T01:45:57.688Z,12.73
2022-12-13T01:48:45.729Z,10.38
2022-12-13T01:51:35.469Z,8.50
2022-12-13T01:54:24.007Z,11.38
2022-12-13T01:57:10.001Z,12.63
2022-12-13T01:59:55.051Z,11.30
2022-12-13T02:02:38.687Z,11.88
2022-12-13T02:05:27.707Z,11.73
2022-12-13T02:08:15.945Z,13.40
2022-12-13T02:10:59.520Z,12.27
2022-12-13T02:13:42.632Z,11.77
2022-12-13T02:16:39.586Z,13.65
2022-12-13T02:20:05.113Z,10.07
2022-12-13T02:23:18.860Z,7.47
2022-12-13T02:26:21.184Z,11.95
2022-12-13T02:29:30.829Z,8.43
2022-12-13T02:32:23.168Z,7.07
2022-12-13T02:35:11.134Z,9.82
2022-12-13T02:38:06.153Z,4.13
2022-12-13T02:40:55.409Z,7.32
2022-12-13T02:43:49.133Z,5.95
2022-12-13T02:46:36.997Z,6.57
2022-12-13T02:49:24.250Z,5.28
2022-12-13T02:52:10.077Z,5.25
2022-12-13T02:54:56.381Z,5.30
2022-12-13T02:57:40.621Z,5.97
2022-12-13T03:00:28.648Z,8.55
2022-12-13T03:03:22.658Z,6.63
2022-12-13T03:06:33.582Z,6.50
2022-12-13T03:09:28.169Z,4.88
2022-12-13T03:12:39.050Z,4.47
2022-12-13T03:15:27.924Z,5.47
2022-12-13T03:18:16.442Z,4.28
2022-12-13T03:21:02.514Z,4.05
2022-12-13T03:23:47.072Z,4.22
2022-12-13T03:26:30.081Z,5.30
2022-12-13T03:29:12.958Z,4.47
2022-12-13T03:31:55.919Z,3.20
2022-12-13T03:34:44.875Z,1.92
2022-12-13T03:37:29.114Z,3.75
2022-12-13T03:40:13.793Z,3.15
2022-12-13T03:42:57.095Z,2.85
2022-12-13T03:45:39.969Z,3.10
2022-12-13T03:48:24.232Z,1.40
2022-12-13T03:51:07.407Z,2.00
2022-12-13T03:53:50.330Z,2.75
2022-12-13T03:56:34.579Z,2.78
2022-12-13T03:59:17.517Z,3.33
2022-12-13T04:02:00.417Z,4.45
2022-12-13T04:04:43.291Z,5.30
2022-12-13T04:07:26.206Z,4.35
2022-12-13T04:10:25.417Z,4.13
2022-12-13T04:13:28.516Z,3.92
2022-12-13T04:16:11.451Z,3.53
2022-12-13T04:18:55.331Z,3.35
2022-12-13T04:21:38.314Z,2.72
2022-12-13T04:24:21.216Z,2.45
2022-12-13T04:27:14.215Z,3.40
2022-12-13T04:29:58.473Z,2.20
2022-12-13T04:32:41.421Z,3.92
2022-12-13T04:35:24.325Z,3.22
2022-12-13T04:38:07.233Z,1.80
2022-12-13T04:40:50.496Z,3.75
2022-12-13T04:43:33.402Z,2.70
2022-12-13T04:46:17.622Z,4.32
2022-12-13T04:49:00.563Z,3.88
2022-12-13T04:51:43.417Z,3.90
2022-12-13T04:54:36.600Z,3.47
2022-12-13T04:57:19.947Z,2.13
2022-12-13T05:00:03.060Z,2.10
2022-12-13T05:02:47.369Z,2.47
2022-12-13T05:05:30.226Z,2.20
2022-12-13T05:08:13.374Z,3.35
2022-12-13T05:10:56.316Z,3.83
2022-12-13T05:13:39.840Z,2.90
2022-12-13T05:16:24.626Z,2.75
2022-12-13T05:19:09.767Z,2.38
2022-12-13T05:21:52.643Z,2.92
2022-12-13T05:24:35.458Z,2.58
2022-12-13T05:27:24.425Z,3.58
2022-12-13T05:30:10.206Z,2.38
2022-12-13T05:32:53.091Z,2.88
2022-12-13T05:35:37.507Z,2.45
2022-12-13T05:38:20.354Z,4.68
2022-12-13T05:41:03.288Z,2.00
2022-12-13T05:43:46.182Z,2.45
2022-12-13T05:46:29.014Z,3.47
2022-12-13T05:49:11.896Z,2.20
2022-12-13T05:51:56.097Z,1.88
2022-12-13T05:54:39.107Z,3.15
2022-12-13T05:57:25.878Z,3.22
2022-12-13T06:00:29.691Z,1.45
2022-12-13T06:03:13.807Z,2.03
2022-12-13T06:05:56.770Z,2.57
2022-12-13T06:08:41.959Z,2.42
2022-12-13T06:11:31.892Z,2.95
2022-12-13T06:14:22.756Z,2.05
2022-12-13T06:17:06.512Z,0.68
2022-12-13T06:19:49.428Z,1.42
2022-12-13T06:22:32.278Z,1.42
2022-12-13T06:25:30.678Z,1.13
2022-12-13T06:28:14.823Z,0.73
2022-12-13T06:31:01.132Z,0.85
2022-12-13T06:33:44.067Z,1.05
2022-12-13T06:36:26.943Z,1.38
2022-12-13T06:39:09.898Z,1.25
2022-12-13T06:41:54.117Z,1.02
2022-12-13T06:44:37.331Z,0.90
2022-12-13T06:47:32.121Z,1.00
2022-12-13T06:50:15.697Z,6.45
2022-12-13T06:52:58.509Z,3.90
2022-12-13T06:55:41.604Z,1.80
2022-12-13T06:58:26.038Z,1.40
2022-12-13T07:01:15.022Z,0.93
2022-12-13T07:04:30.377Z,1.90
2022-12-13T07:09:54.821Z,2.38
2022-12-13T07:12:37.690Z,3.23
2022-12-13T07:15:21.981Z,2.25
2022-12-13T07:18:05.257Z,1.33
2022-12-13T07:20:48.138Z,1.10
2022-12-13T07:23:31.019Z,0.65
2022-12-13T07:26:14.392Z,1.38
2022-12-13T07:28:57.620Z,1.75
2022-12-13T07:31:41.866Z,1.10
2022-12-13T07:34:24.772Z,1.10
2022-12-13T07:37:07.603Z,0.95
2022-12-13T07:40:11.950Z,1.73
2022-12-13T07:42:56.086Z,1.48
2022-12-13T07:45:41.273Z,1.10
2022-12-13T07:48:25.506Z,0.93
2022-12-13T07:51:11.053Z,4.53
2022-12-13T07:53:53.907Z,2.00
2022-12-13T07:56:36.845Z,1.80
2022-12-13T07:59:28.330Z,1.77
2022-12-13T08:02:14.538Z,3.22
2022-12-13T08:04:58.856Z,2.20
2022-12-13T08:08:02.309Z,2.65
2022-12-13T08:10:45.177Z,2.17
2022-12-13T08:13:28.033Z,6.97
2022-12-13T08:16:28.413Z,10.23
2022-12-13T08:19:12.241Z,8.50
2022-12-13T08:21:58.852Z,3.58
2022-12-13T08:24:44.784Z,4.53
2022-12-13T08:27:27.716Z,5.90
2022-12-13T08:30:11.725Z,4.40
2022-12-13T08:32:55.942Z,3.47
2022-12-13T08:38:25.623Z,3.05
2022-12-13T08:41:08.846Z,3.63
2022-12-13T08:43:52.002Z,3.13
2022-12-13T08:46:34.987Z,7.70
2022-12-13T08:49:17.903Z,4.05
2022-12-13T08:52:00.934Z,5.13
2022-12-13T08:54:45.468Z,4.55
2022-12-13T08:57:28.324Z,4.35
2022-12-13T09:00:14.044Z,4.45
2022-12-13T09:02:58.360Z,4.93
2022-12-13T09:08:25.665Z,4.15
2022-12-13T09:11:23.786Z,3.10
2022-12-13T09:14:14.350Z,4.20
2022-12-13T09:16:57.339Z,5.95
2022-12-13T09:19:46.015Z,5.47
2022-12-13T09:22:33.859Z,2.55
2022-12-13T09:25:23.972Z,2.97
2022-12-13T09:28:10.214Z,2.38
2022-12-13T09:30:53.313Z,33.40
2022-12-13T09:33:41.219Z,27.25
2022-12-13T09:36:24.779Z,18.75
2022-12-13T09:39:07.635Z,10.32
2022-12-13T09:42:01.259Z,5.60
2022-12-13T09:45:02.468Z,4.97
2022-12-13T09:47:49.713Z,4.28
2022-12-13T09:50:37.043Z,2.03
2022-12-13T09:53:22.718Z,3.00
2022-12-13T09:56:10.110Z,1.98
2022-12-13T09:58:56.503Z,14.75
2022-12-13T10:01:40.811Z,16.45
2022-12-13T10:07:13.127Z,6.53
2022-12-13T10:10:01.789Z,5.03
2022-12-13T10:12:47.718Z,3.00
2022-12-13T10:15:33.502Z,3.20
2022-12-13T10:18:32.580Z,3.95
2022-12-13T10:21:23.264Z,3.45
2022-12-13T10:24:27.308Z,4.32
2022-12-13T10:27:16.694Z,3.50
2022-12-13T10:30:02.895Z,6.20
2022-12-13T10:32:55.818Z,6.95
2022-12-13T10:35:42.041Z,7.25
2022-12-13T10:38:31.572Z,4.28
2022-12-13T10:41:34.265Z,5.97
2022-12-13T10:44:24.177Z,3.72
2022-12-13T10:47:17.464Z,4.25
2022-12-13T10:50:01.314Z,2.55
2022-12-13T10:52:48.596Z,3.05
2022-12-13T10:55:33.539Z,3.05
2022-12-13T10:58:20.929Z,2.33
2022-12-13T11:01:21.774Z,2.35
2022-12-13T11:04:06.754Z,1.50
2022-12-13T11:06:49.934Z,1.77
2022-12-13T11:09:39.050Z,1.60
2022-12-13T11:12:25.175Z,1.60
2022-12-13T11:15:16.989Z,1.70
2022-12-13T11:18:09.657Z,1.90
2022-12-13T11:20:57.951Z,3.55
2022-12-13T11:23:44.513Z,0.80
2022-12-13T11:26:31.115Z,3.15
2022-12-13T11:29:35.517Z,1.00
2022-12-13T11:32:30.367Z,0.93
2022-12-13T11:35:22.199Z,1.38
2022-12-13T11:38:15.433Z,1.52
2022-12-13T11:41:04.009Z,1.52
2022-12-13T11:43:53.328Z,1.08
2022-12-13T11:46:42.556Z,1.08
2022-12-13T11:49:37.370Z,0.80
2022-12-13T11:55:15.797Z,0.90
2022-12-13T11:58:05.173Z,0.70
2022-12-13T12:00:56.296Z,1.42
2022-12-13T12:03:45.702Z,2.60
2022-12-13T12:06:34.093Z,1.63
2022-12-13T12:09:20.174Z,0.88
2022-12-13T12:12:07.552Z,1.52
2022-12-13T12:14:55.154Z,0.95
2022-12-13T12:17:42.345Z,1.00
2022-12-13T12:20:38.203Z,1.25
2022-12-13T12:23:37.355Z,1.20
2022-12-13T12:26:32.437Z,2.17
2022-12-13T12:29:29.789Z,2.03
2022-12-13T12:32:21.485Z,2.85
2022-12-13T12:35:19.262Z,2.08
2022-12-13T12:38:13.486Z,1.58
2022-12-13T12:41:18.990Z,0.50
2022-12-13T12:44:13.034Z,1.55
2022-12-13T12:47:31.891Z,1.15
2022-12-13T12:50:30.003Z,2.83
2022-12-13T12:53:33.743Z,3.22
2022-12-13T12:56:29.876Z,2.55
2022-12-13T12:59:19.826Z,1.70
2022-12-13T13:02:10.870Z,1.90
2022-12-13T13:04:59.108Z,2.00
2022-12-13T13:07:51.219Z,1.73
2022-12-13T13:10:34.782Z,1.38
2022-12-13T13:13:35.243Z,1.73
2022-12-13T13:16:33.383Z,1.75
2022-12-13T13:19:45.730Z,1.02
2022-12-13T13:22:34.404Z,0.50
2022-12-13T13:25:32.668Z,0.77
2022-12-13T13:28:18.297Z,0.85
2022-12-13T13:31:06.553Z,0.50
2022-12-13T13:33:51.252Z,0.60
2022-12-13T13:36:47.284Z,1.08
2022-12-13T13:39:56.556Z,0.65
2022-12-13T13:43:08.409Z,1.83
2022-12-13T13:46:00.534Z,1.80
2022-12-13T13:48:57.070Z,1.38
2022-12-13T13:52:24.330Z,1.75
2022-12-13T13:55:30.835Z,1.35
2022-12-13T13:58:39.011Z,1.15
2022-12-13T14:01:48.795Z,1.25
2022-12-13T14:05:07.986Z,4.90
2022-12-13T14:08:24.606Z,4.18
2022-12-13T14:11:22.105Z,3.47
2022-12-13T14:14:51.409Z,3.42
2022-12-13T14:18:08.865Z,3.70
2022-12-13T14:21:03.694Z,4.47
2022-12-13T14:26:51.648Z,10.18
2022-12-13T14:29:38.845Z,10.95
2022-12-13T14:32:27.628Z,6.30
2022-12-13T14:35:26.923Z,14.00
2022-12-13T14:38:23.127Z,15.88
2022-12-13T14:41:08.478Z,5.38
2022-12-13T14:43:51.330Z,3.67
2022-12-13T14:46:34.335Z,2.40
2022-12-13T14:49:19.729Z,1.77
2022-12-13T14:52:06.584Z,1.80
2022-12-13T14:54:51.829Z,1.77
2022-12-13T14:57:52.047Z,1.55
2022-12-13T15:00:40.232Z,2.20
2022-12-13T15:03:25.697Z,1.60
2022-12-13T15:06:10.355Z,1.33
2022-12-13T15:08:53.743Z,1.83
2022-12-13T15:11:37.568Z,2.42
2022-12-13T15:14:23.579Z,1.23
2022-12-13T15:17:06.996Z,0.88
2022-12-13T15:19:50.731Z,1.42
2022-12-13T15:22:37.992Z,1.65
2022-12-13T15:25:24.616Z,3.47
2022-12-13T15:28:08.953Z,3.75
2022-12-13T15:33:40.885Z,2.85
2022-12-13T15:36:29.087Z,4.43
2022-12-13T15:39:18.043Z,7.68
2022-12-13T15:42:01.341Z,6.47
2022-12-13T15:44:48.286Z,4.72
2022-12-13T15:47:31.209Z,3.95
2022-12-13T15:50:33.927Z,3.10
2022-12-13T15:53:24.129Z,2.97
2022-12-13T15:56:31.726Z,2.58
2022-12-13T15:59:26.932Z,2.92
2022-12-13T16:02:17.928Z,4.38
2022-12-13T16:05:07.870Z,3.08
2022-12-13T16:07:56.400Z,3.22
2022-12-13T16:10:39.653Z,5.63
2022-12-13T16:13:27.524Z,5.45
2022-12-13T16:16:27.146Z,3.90
2022-12-13T16:19:17.736Z,2.88
2022-12-13T16:22:00.928Z,2.30
2022-12-13T16:24:43.769Z,2.70
2022-12-13T16:27:26.672Z,2.03
2022-12-13T16:30:23.957Z,4.43
2022-12-13T16:33:26.458Z,3.55
2022-12-13T16:36:23.397Z,1.95
2022-12-13T16:39:11.053Z,2.00
2022-12-13T16:41:54.168Z,2.13
2022-12-13T16:44:38.633Z,2.13
2022-12-13T16:47:36.470Z,2.75
2022-12-13T16:50:24.506Z,1.40
2022-12-13T16:53:09.760Z,3.00
2022-12-13T16:55:58.352Z,2.50
2022-12-13T16:58:47.755Z,1.88
2022-12-13T17:01:33.013Z,3.10
2022-12-13T17:04:21.027Z,1.25
2022-12-13T17:07:04.401Z,1.80
2022-12-13T17:09:47.354Z,1.52
2022-12-13T17:12:30.274Z,1.75
2022-12-13T17:15:14.868Z,2.00
2022-12-13T17:17:57.782Z,4.65
2022-12-13T17:20:42.016Z,3.40
2022-12-13T17:26:08.718Z,3.53
2022-12-13T17:28:51.838Z,2.28
2022-12-13T17:31:36.136Z,4.28
2022-12-13T17:34:19.214Z,2.53
2022-12-13T17:37:10.006Z,3.08
2022-12-13T17:39:53.147Z,1.65
2022-12-13T17:42:36.362Z,1.77
2022-12-13T17:45:19.672Z,2.92
2022-12-13T17:48:02.568Z,1.87
2022-12-13T17:50:45.399Z,2.08
2022-12-13T17:53:29.722Z,1.40
2022-12-13T17:56:15.728Z,3.50
2022-12-13T17:58:58.614Z,1.88
2022-12-13T18:01:41.542Z,3.75
2022-12-13T18:04:24.437Z,4.88
2022-12-13T18:07:07.326Z,3.47
2022-12-13T18:09:51.501Z,4.35
2022-12-13T18:15:17.396Z,2.72
2022-12-13T18:18:15.693Z,4.00
2022-12-13T18:21:04.038Z,3.25
2022-12-13T18:23:55.664Z,3.15
2022-12-13T18:26:40.366Z,2.05
2022-12-13T18:29:23.234Z,3.35
2022-12-13T18:32:06.310Z,1.95
2022-12-13T18:34:49.342Z,4.00
2022-12-13T18:37:37.602Z,2.63
2022-12-13T18:40:20.461Z,4.25
2022-12-13T18:43:05.158Z,2.22
2022-12-13T18:45:48.001Z,1.73
2022-12-13T18:48:31.148Z,2.20
2022-12-13T18:51:14.186Z,2.92
2022-12-13T18:53:57.596Z,3.08
2022-12-13T18:56:42.670Z,2.90
2022-12-13T18:59:27.071Z,3.53
2022-12-13T19:02:12.477Z,4.20
2022-12-13T19:04:55.868Z,4.53
2022-12-13T19:07:38.816Z,3.10
2022-12-13T19:10:21.718Z,2.58
2022-12-13T19:13:05.714Z,2.28
2022-12-13T19:15:50.112Z,3.15
2022-12-13T19:18:33.202Z,3.15
2022-12-13T19:21:17.935Z,2.20
2022-12-13T19:24:01.422Z,3.60
2022-12-13T19:26:44.342Z,2.75
2022-12-13T19:29:27.225Z,3.10
2022-12-13T19:32:11.827Z,2.93
2022-12-13T19:37:37.878Z,2.30
2022-12-13T19:40:20.761Z,2.42
2022-12-13T19:43:03.660Z,3.53
2022-12-13T19:45:46.656Z,1.77
2022-12-13T19:48:31.466Z,2.22
2022-12-13T19:51:14.342Z,2.78
2022-12-13T19:53:57.214Z,1.40
2022-12-13T19:56:40.700Z,2.03
2022-12-13T19:59:23.819Z,2.03
2022-12-13T20:02:06.711Z,1.67
2022-12-13T20:04:51.353Z,1.77
2022-12-13T20:07:34.203Z,1.88
2022-12-13T20:10:17.075Z,1.40
2022-12-13T20:13:01.150Z,1.90
2022-12-13T20:15:47.975Z,2.58
2022-12-13T20:18:30.841Z,3.15
2022-12-13T20:21:16.348Z,5.07
2022-12-13T20:23:59.371Z,3.80
2022-12-13T20:26:42.358Z,4.72
2022-12-13T20:29:25.934Z,3.30
2022-12-13T20:32:08.772Z,1.35
2022-12-13T20:34:54.710Z,1.20
2022-12-13T20:37:41.528Z,1.42
2022-12-13T20:40:26.454Z,0.90
2022-12-13T20:43:09.416Z,1.20
2022-12-13T20:45:52.281Z,1.00
2022-12-13T20:48:37.237Z,1.55
2022-12-13T20:51:22.507Z,2.33
2022-12-13T20:54:06.885Z,4.35
2022-12-13T20:56:49.731Z,1.20
2022-12-13T20:59:32.610Z,2.25
2022-12-13T21:02:16.438Z,1.58
2022-12-13T21:04:59.340Z,2.28
2022-12-13T21:07:59.593Z,1.90
2022-12-13T21:10:43.824Z,2.67
2022-12-13T21:16:10.138Z,2.45
2022-12-13T21:18:54.350Z,3.10
2022-12-13T21:21:38.353Z,2.60
2022-12-13T21:24:23.009Z,2.53
2022-12-13T21:27:07.222Z,2.53
2022-12-13T21:32:32.691Z,2.30
2022-12-13T21:35:15.782Z,1.88
2022-12-13T21:38:03.618Z,1.70
2022-12-13T21:40:49.009Z,2.05
2022-12-13T21:43:42.210Z,1.90
2022-12-13T21:46:55.250Z,2.00
2022-12-13T21:49:34.205Z,2.80
2022-12-13T21:52:17.392Z,2.00
2022-12-13T21:55:22.144Z,2.85
2022-12-13T21:58:20.611Z,1.38
2022-12-13T22:01:04.884Z,0.75
2022-12-13T22:03:48.287Z,2.08
2022-12-13T22:06:31.168Z,2.22
2022-12-13T22:09:14.346Z,4.45
2022-12-13T22:11:57.625Z,2.67
2022-12-13T22:14:40.491Z,2.55
2022-12-13T22:17:31.322Z,3.33
2022-12-13T22:23:00.591Z,9.20
2022-12-13T22:25:43.454Z,7.93
2022-12-13T22:28:31.332Z,6.10
2022-12-13T22:31:14.378Z,4.18
2022-12-13T22:33:59.222Z,1.67
2022-12-13T22:36:42.130Z,1.88
2022-12-13T22:39:25.330Z,2.67
2022-12-13T22:42:08.330Z,1.33
2022-12-13T22:44:51.206Z,1.80
2022-12-13T22:47:34.737Z,1.80
2022-12-13T22:50:20.757Z,1.83
2022-12-13T22:53:03.585Z,2.63
2022-12-13T22:55:46.624Z,1.80
2022-12-13T22:58:29.899Z,1.30
2022-12-13T23:01:14.803Z,2.58
2022-12-13T23:03:59.441Z,2.17
2022-12-13T23:06:43.705Z,2.43
2022-12-13T23:12:28.124Z,3.13
2022-12-13T23:15:11.520Z,2.00
2022-12-13T23:17:54.405Z,2.33
2022-12-13T23:20:37.309Z,2.00
2022-12-13T23:23:22.746Z,2.35
2022-12-13T23:28:55.144Z,2.88
2022-12-13T23:31:40.336Z,1.98
2022-12-13T23:34:23.177Z,2.83
2022-12-13T23:37:06.082Z,2.45
2022-12-13T23:39:50.283Z,2.20
2022-12-13T23:45:16.209Z,2.00
2022-12-13T23:47:59.045Z,1.45
2022-12-13T23:50:41.892Z,1.67
2022-12-13T23:53:25.152Z,1.80
2022-12-13T23:56:11.573Z,1.57
2022-12-13T23:58:54.424Z,2.17
